createdAt,value
2022-11-15T00:00:56.065Z,91.32
2022-11-15T00:03:25.537Z,84.00
2022-11-15T00:05:52.818Z,91.97
2022-11-15T00:08:19.632Z,92.03
2022-11-15T00:10:57.203Z,91.38
2022-11-15T00:13:24.015Z,88.30
2022-11-15T00:15:50.829Z,90.53
2022-11-15T00:18:18.573Z,83.15
2022-11-15T00:20:45.618Z,84.28
2022-11-15T00:23:12.640Z,91.80
2022-11-15T00:25:39.564Z,88.32
2022-11-15T00:28:06.308Z,89.43
2022-11-15T00:30:33.150Z,83.43
2022-11-15T00:33:07.236Z,87.13
2022-11-15T00:35:35.215Z,90.18
2022-11-15T00:38:02.776Z,86.88
2022-11-15T00:40:29.641Z,80.80
2022-11-15T00:42:56.897Z,86.03
2022-11-15T00:45:23.914Z,88.07
2022-11-15T00:47:50.950Z,88.72
2022-11-15T00:50:18.106Z,86.45
2022-11-15T00:52:45.513Z,85.50
2022-11-15T00:55:16.131Z,83.43
2022-11-15T00:57:42.962Z,83.30
2022-11-15T01:00:10.521Z,86.57
2022-11-15T01:02:37.190Z,82.07
2022-11-15T01:05:04.823Z,81.60
2022-11-15T01:07:31.656Z,80.82
2022-11-15T01:09:58.529Z,84.75
2022-11-15T01:12:25.386Z,83.63
2022-11-15T01:14:52.198Z,83.82
2022-11-15T01:17:19.039Z,77.90
2022-11-15T01:19:45.977Z,77.97
2022-11-15T01:22:12.745Z,84.18
2022-11-15T01:24:39.514Z,89.53
2022-11-15T01:27:06.474Z,81.22
2022-11-15T01:29:34.321Z,86.93
2022-11-15T01:32:01.375Z,82.03
2022-11-15T01:34:28.070Z,89.15
2022-11-15T01:36:54.817Z,92.88
2022-11-15T01:39:21.533Z,85.28
2022-11-15T01:41:48.309Z,87.07
2022-11-15T01:44:50.330Z,84.53
2022-11-15T01:47:39.486Z,86.80
2022-11-15T01:50:13.075Z,79.45
2022-11-15T01:52:41.101Z,87.13
2022-11-15T01:55:20.895Z,91.40
2022-11-15T01:57:51.473Z,93.60
2022-11-15T02:00:18.499Z,95.88
2022-11-15T02:02:45.277Z,95.57
2022-11-15T02:05:12.419Z,92.13
2022-11-15T02:07:39.458Z,99.18
2022-11-15T02:10:17.879Z,94.55
2022-11-15T02:12:45.086Z,86.15
2022-11-15T02:15:12.463Z,81.20
2022-11-15T02:18:07.370Z,92.05
2022-11-15T02:20:44.463Z,86.15
2022-11-15T02:23:20.061Z,75.70
2022-11-15T02:25:46.786Z,78.70
2022-11-15T02:28:31.770Z,83.28
2022-11-15T02:31:17.290Z,76.47
2022-11-15T02:34:06.653Z,75.35
2022-11-15T02:36:48.656Z,79.43
2022-11-15T02:39:52.478Z,76.78
2022-11-15T02:42:43.243Z,72.05
2022-11-15T02:45:14.309Z,86.65
2022-11-15T02:47:48.972Z,77.18
2022-11-15T02:50:19.468Z,78.45
2022-11-15T02:52:47.823Z,80.85
2022-11-15T02:55:35.317Z,84.05
2022-11-15T02:58:39.117Z,80.10
2022-11-15T03:01:25.412Z,71.82
2022-11-15T03:04:15.663Z,76.53
2022-11-15T03:06:53.159Z,76.60
2022-11-15T03:09:33.018Z,81.85
2022-11-15T03:12:18.311Z,73.22
2022-11-15T03:14:58.451Z,80.22
2022-11-15T03:17:30.886Z,71.10
2022-11-15T03:20:02.143Z,74.68
2022-11-15T03:22:31.557Z,77.50
2022-11-15T03:25:06.513Z,74.15
2022-11-15T03:27:39.245Z,78.85
2022-11-15T03:30:09.215Z,80.00
2022-11-15T03:32:41.352Z,87.85
2022-11-15T03:35:12.664Z,82.32
2022-11-15T03:38:05.797Z,77.68
2022-11-15T03:40:44.038Z,77.90
2022-11-15T03:45:48.737Z,78.07
2022-11-15T03:48:25.468Z,78.90
2022-11-15T03:50:52.812Z,73.32
2022-11-15T03:53:19.583Z,76.38
2022-11-15T03:55:46.192Z,80.05
2022-11-15T03:58:12.857Z,81.15
2022-11-15T04:00:39.567Z,78.30
2022-11-15T04:03:06.675Z,74.57
2022-11-15T04:05:33.359Z,79.90
2022-11-15T04:08:00.101Z,80.38
2022-11-15T04:10:26.825Z,82.03
2022-11-15T04:12:53.868Z,78.13
2022-11-15T04:15:23.186Z,77.40
2022-11-15T04:17:52.319Z,74.28
2022-11-15T04:20:39.092Z,81.00
2022-11-15T04:23:30.646Z,72.85
2022-11-15T04:26:01.030Z,76.57
2022-11-15T04:28:28.112Z,75.45
2022-11-15T04:30:54.835Z,78.38
2022-11-15T04:33:22.131Z,77.13
2022-11-15T04:36:08.958Z,72.72
2022-11-15T04:38:36.495Z,77.88
2022-11-15T04:41:04.159Z,77.32
2022-11-15T04:43:31.283Z,75.82
2022-11-15T04:45:58.243Z,70.40
2022-11-15T04:48:24.919Z,73.18
2022-11-15T04:50:51.553Z,76.53
2022-11-15T04:53:18.267Z,76.60
2022-11-15T04:55:48.051Z,73.88
2022-11-15T04:58:14.749Z,81.60
2022-11-15T05:00:41.447Z,82.43
2022-11-15T05:03:28.977Z,76.15
2022-11-15T05:05:55.998Z,79.85
2022-11-15T05:08:22.688Z,83.22
2022-11-15T05:10:49.436Z,80.78
2022-11-15T05:13:16.127Z,84.90
2022-11-15T05:15:42.780Z,85.82
2022-11-15T05:18:09.633Z,89.28
2022-11-15T05:20:36.370Z,86.28
2022-11-15T05:23:03.237Z,92.30
2022-11-15T05:25:30.082Z,78.55
2022-11-15T05:27:57.001Z,80.93
2022-11-15T05:30:23.673Z,85.05
2022-11-15T05:32:51.351Z,87.28
2022-11-15T05:35:32.508Z,116.82
2022-11-15T05:37:59.409Z,101.88
2022-11-15T05:40:26.809Z,130.40
2022-11-15T05:42:53.678Z,132.13
2022-11-15T05:45:26.571Z,127.45
2022-11-15T05:47:56.285Z,106.18
2022-11-15T05:50:23.036Z,120.20
2022-11-15T05:52:50.151Z,149.98
2022-11-15T05:55:16.842Z,141.77
2022-11-15T05:57:43.801Z,134.07
2022-11-15T06:00:11.064Z,120.25
2022-11-15T06:02:37.790Z,138.32
2022-11-15T06:05:04.726Z,97.63
2022-11-15T06:07:31.790Z,174.05
2022-11-15T06:09:58.486Z,108.72
2022-11-15T06:12:25.360Z,97.75
2022-11-15T06:14:52.218Z,145.20
2022-11-15T06:17:18.931Z,132.65
2022-11-15T06:19:45.741Z,198.70
2022-11-15T06:22:12.464Z,114.45
2022-11-15T06:24:39.153Z,180.20
2022-11-15T06:27:05.756Z,247.13
2022-11-15T06:29:32.497Z,134.27
2022-11-15T06:31:59.472Z,107.85
2022-11-15T06:34:26.186Z,108.80
2022-11-15T06:36:52.820Z,95.18
2022-11-15T06:39:19.588Z,112.20
2022-11-15T06:41:46.331Z,86.85
2022-11-15T06:44:13.082Z,173.60
2022-11-15T06:46:39.804Z,98.70
2022-11-15T06:49:09.624Z,112.80
2022-11-15T06:51:36.867Z,86.13
2022-11-15T06:54:03.924Z,83.82
2022-11-15T06:56:30.639Z,78.53
2022-11-15T06:58:57.486Z,78.57
2022-11-15T07:01:24.216Z,91.38
2022-11-15T07:03:50.902Z,80.38
2022-11-15T07:06:17.621Z,78.45
2022-11-15T07:08:44.475Z,81.75
2022-11-15T07:11:11.224Z,75.10
2022-11-15T07:13:38.498Z,77.40
2022-11-15T07:16:11.209Z,73.35
2022-11-15T07:18:39.497Z,77.18
2022-11-15T07:21:08.626Z,75.80
2022-11-15T07:23:38.206Z,72.95
2022-11-15T07:26:05.462Z,70.47
2022-11-15T07:28:32.463Z,76.93
2022-11-15T07:30:59.342Z,70.68
2022-11-15T07:33:26.213Z,72.22
2022-11-15T07:35:52.978Z,71.30
2022-11-15T07:38:22.570Z,71.40
2022-11-15T07:40:57.623Z,69.20
2022-11-15T07:43:24.266Z,67.57
2022-11-15T07:45:55.994Z,66.35
2022-11-15T07:48:25.451Z,63.25
2022-11-15T07:50:52.233Z,69.00
2022-11-15T07:53:18.945Z,72.15
2022-11-15T07:55:45.818Z,63.05
2022-11-15T07:58:13.239Z,67.40
2022-11-15T08:00:40.202Z,66.75
2022-11-15T08:03:15.070Z,65.00
2022-11-15T08:05:42.698Z,63.80
2022-11-15T08:08:12.000Z,64.15
2022-11-15T08:10:40.783Z,61.00
2022-11-15T08:13:10.119Z,62.88
2022-11-15T08:15:38.227Z,57.95
2022-11-15T08:18:17.203Z,61.95
2022-11-15T08:20:44.118Z,60.88
2022-11-15T08:23:13.865Z,61.53
2022-11-15T08:25:41.278Z,58.22
2022-11-15T08:28:09.138Z,60.63
2022-11-15T08:30:38.363Z,59.95
2022-11-15T08:33:05.718Z,61.53
2022-11-15T08:35:32.554Z,62.42
2022-11-15T08:37:59.218Z,60.83
2022-11-15T08:40:27.871Z,62.45
2022-11-15T08:42:54.813Z,61.33
2022-11-15T08:45:22.079Z,57.47
2022-11-15T08:47:53.925Z,56.85
2022-11-15T08:50:21.233Z,58.95
2022-11-15T08:52:49.237Z,62.83
2022-11-15T08:55:17.641Z,57.53
2022-11-15T08:57:44.989Z,58.13
2022-11-15T09:00:13.113Z,56.78
2022-11-15T09:02:41.025Z,59.65
2022-11-15T09:05:08.561Z,60.45
2022-11-15T09:07:35.418Z,57.72
2022-11-15T09:10:02.227Z,58.22
2022-11-15T09:12:29.210Z,60.38
2022-11-15T09:14:55.907Z,57.72
2022-11-15T09:17:25.045Z,56.97
2022-11-15T09:19:52.132Z,55.55
2022-11-15T09:22:19.100Z,55.22
2022-11-15T09:24:46.000Z,57.65
2022-11-15T09:27:14.354Z,54.38
2022-11-15T09:29:41.202Z,50.33
2022-11-15T09:32:08.318Z,51.83
2022-11-15T09:34:34.908Z,55.47
2022-11-15T09:37:01.820Z,55.65
2022-11-15T09:39:28.497Z,51.10
2022-11-15T09:42:31.529Z,50.90
2022-11-15T09:45:01.043Z,52.20
2022-11-15T09:47:39.866Z,49.08
2022-11-15T09:50:18.155Z,52.50
2022-11-15T09:52:46.573Z,51.15
2022-11-15T09:55:22.157Z,53.33
2022-11-15T09:58:00.905Z,51.53
2022-11-15T10:00:46.015Z,55.03
2022-11-15T10:03:16.135Z,51.55
2022-11-15T10:05:51.444Z,52.67
2022-11-15T10:08:33.662Z,51.28
2022-11-15T10:14:03.088Z,56.35
2022-11-15T10:16:56.052Z,50.00
2022-11-15T10:19:46.083Z,49.30
2022-11-15T10:22:33.107Z,52.65
2022-11-15T10:25:19.337Z,50.88
2022-11-15T10:27:53.292Z,50.20
2022-11-15T10:30:20.365Z,51.15
2022-11-15T10:32:48.412Z,46.85
2022-11-15T10:35:21.649Z,46.58
2022-11-15T10:37:48.612Z,49.30
2022-11-15T10:40:23.096Z,46.55
2022-11-15T10:43:07.223Z,45.58
2022-11-15T10:45:35.007Z,44.92
2022-11-15T10:48:14.144Z,46.58
2022-11-15T10:50:46.378Z,40.97
2022-11-15T10:53:37.389Z,42.97
2022-11-15T10:56:09.785Z,41.35
2022-11-15T10:58:51.092Z,41.47
2022-11-15T11:01:26.666Z,42.33
2022-11-15T11:04:09.590Z,40.40
2022-11-15T11:07:00.289Z,40.03
2022-11-15T11:09:34.397Z,37.28
2022-11-15T11:12:02.116Z,38.53
2022-11-15T11:14:37.895Z,39.22
2022-11-15T11:17:31.785Z,38.95
2022-11-15T11:20:13.319Z,40.92
2022-11-15T11:23:15.572Z,38.08
2022-11-15T11:25:54.943Z,36.50
2022-11-15T11:28:44.686Z,40.63
2022-11-15T11:31:26.812Z,39.55
2022-11-15T11:34:13.996Z,36.85
2022-11-15T11:36:46.796Z,39.40
2022-11-15T11:39:19.384Z,35.10
2022-11-15T11:42:09.432Z,37.28
2022-11-15T11:45:06.426Z,37.95
2022-11-15T11:47:41.527Z,36.55
2022-11-15T11:50:16.495Z,39.90
2022-11-15T11:53:03.921Z,39.53
2022-11-15T11:55:40.573Z,38.55
2022-11-15T11:58:31.273Z,35.08
2022-11-15T12:01:18.701Z,37.58
2022-11-15T12:03:48.580Z,39.55
2022-11-15T12:06:21.141Z,36.72
2022-11-15T12:09:13.077Z,35.75
2022-11-15T12:11:51.962Z,36.70
2022-11-15T12:14:27.737Z,40.00
2022-11-15T12:16:54.523Z,38.67
2022-11-15T12:19:21.243Z,41.47
2022-11-15T12:21:56.109Z,36.03
2022-11-15T12:24:31.463Z,43.30
2022-11-15T12:27:23.256Z,39.13
2022-11-15T12:29:56.958Z,39.80
2022-11-15T12:32:37.449Z,39.40
2022-11-15T12:35:07.150Z,38.35
2022-11-15T12:37:47.189Z,38.60
2022-11-15T12:40:21.768Z,40.83
2022-11-15T12:43:01.860Z,38.08
2022-11-15T12:45:38.283Z,36.90
2022-11-15T12:48:17.335Z,37.38
2022-11-15T12:50:55.113Z,37.33
2022-11-15T12:53:28.462Z,35.92
2022-11-15T12:56:13.392Z,35.30
2022-11-15T12:58:54.050Z,36.05
2022-11-15T13:01:41.005Z,35.35
2022-11-15T13:04:20.124Z,38.03
2022-11-15T13:06:48.662Z,35.63
2022-11-15T13:09:30.832Z,36.17
2022-11-15T13:12:05.261Z,32.72
2022-11-15T13:14:37.979Z,35.90
2022-11-15T13:17:20.176Z,37.42
2022-11-15T13:19:48.947Z,35.13
2022-11-15T13:22:34.251Z,36.30
2022-11-15T13:25:02.337Z,35.40
2022-11-15T13:27:30.037Z,38.33
2022-11-15T13:29:56.877Z,37.10
2022-11-15T13:32:23.730Z,36.75
2022-11-15T13:34:53.846Z,35.85
2022-11-15T13:37:23.655Z,37.25
2022-11-15T13:39:51.021Z,38.75
2022-11-15T13:42:20.432Z,40.55
2022-11-15T13:44:58.966Z,36.70
2022-11-15T13:47:29.937Z,37.20
2022-11-15T13:50:02.457Z,38.75
2022-11-15T13:52:36.142Z,38.28
2022-11-15T13:55:10.300Z,38.03
2022-11-15T13:57:46.626Z,34.20
2022-11-15T14:00:35.450Z,37.53
2022-11-15T14:03:16.553Z,39.83
2022-11-15T14:05:43.610Z,38.08
2022-11-15T14:08:16.415Z,35.63
2022-11-15T14:10:43.082Z,41.60
2022-11-15T14:13:30.488Z,38.78
2022-11-15T14:16:20.783Z,38.13
2022-11-15T14:18:51.631Z,37.33
2022-11-15T14:21:19.816Z,39.42
2022-11-15T14:23:47.055Z,44.97
2022-11-15T14:26:30.772Z,43.15
2022-11-15T14:28:57.521Z,44.72
2022-11-15T14:31:24.210Z,45.33
2022-11-15T14:33:50.837Z,46.85
2022-11-15T14:36:19.373Z,45.55
2022-11-15T14:38:46.755Z,49.03
2022-11-15T14:41:33.561Z,50.60
2022-11-15T14:44:00.220Z,52.00
2022-11-15T14:46:26.858Z,49.60
2022-11-15T14:48:53.519Z,50.97
2022-11-15T14:51:22.804Z,55.45
2022-11-15T14:53:50.287Z,57.15
2022-11-15T14:56:19.728Z,59.10
2022-11-15T14:58:46.499Z,57.33
2022-11-15T15:01:26.367Z,56.78
2022-11-15T15:03:56.806Z,59.53
2022-11-15T15:06:24.342Z,57.33
2022-11-15T15:08:51.998Z,56.30
2022-11-15T15:11:24.910Z,54.70
2022-11-15T15:13:53.258Z,60.10
2022-11-15T15:16:20.644Z,57.17
2022-11-15T15:18:47.365Z,55.75
2022-11-15T15:21:36.844Z,57.22
2022-11-15T15:24:05.045Z,57.58
2022-11-15T15:26:34.751Z,53.40
2022-11-15T15:29:01.515Z,55.00
2022-11-15T15:31:28.305Z,52.80
2022-11-15T15:33:54.915Z,57.67
2022-11-15T15:36:21.610Z,58.88
2022-11-15T15:38:48.268Z,60.03
2022-11-15T15:41:16.525Z,59.40
2022-11-15T15:43:43.692Z,59.88
2022-11-15T15:46:15.985Z,63.97
2022-11-15T15:48:43.173Z,63.03
2022-11-15T15:51:15.653Z,58.65
2022-11-15T15:53:45.301Z,66.35
2022-11-15T15:56:11.992Z,73.57
2022-11-15T15:58:38.992Z,67.47
2022-11-15T16:01:05.746Z,72.53
2022-11-15T16:03:32.577Z,72.38
2022-11-15T16:05:59.601Z,68.53
2022-11-15T16:08:42.590Z,74.43
2022-11-15T16:11:17.622Z,70.72
2022-11-15T16:13:44.715Z,75.55
2022-11-15T16:16:14.686Z,68.30
2022-11-15T16:18:41.368Z,78.90
2022-11-15T16:21:09.710Z,71.53
2022-11-15T16:23:36.469Z,72.30
2022-11-15T16:26:04.403Z,71.65
2022-11-15T16:28:34.017Z,88.97
2022-11-15T16:31:11.352Z,82.15
2022-11-15T16:33:38.820Z,77.45
2022-11-15T16:36:11.625Z,79.35
2022-11-15T16:38:39.980Z,83.18
2022-11-15T16:41:06.697Z,85.78
2022-11-15T16:43:33.310Z,82.00
2022-11-15T16:46:25.474Z,88.90
2022-11-15T16:48:53.836Z,84.00
2022-11-15T16:51:20.883Z,92.63
2022-11-15T16:53:49.121Z,87.57
2022-11-15T16:56:26.966Z,92.15
2022-11-15T16:59:01.038Z,99.55
2022-11-15T17:01:30.559Z,98.10
2022-11-15T17:03:57.469Z,98.47
2022-11-15T17:06:25.919Z,98.43
2022-11-15T17:08:52.842Z,91.07
2022-11-15T17:11:22.863Z,98.00
2022-11-15T17:13:49.647Z,104.82
2022-11-15T17:16:18.369Z,107.03
2022-11-15T17:18:45.675Z,102.60
2022-11-15T17:21:15.912Z,110.50
2022-11-15T17:23:43.319Z,103.85
2022-11-15T17:26:28.747Z,108.30
2022-11-15T17:29:01.512Z,106.45
2022-11-15T17:31:30.789Z,110.55
2022-11-15T17:33:57.497Z,109.30
2022-11-15T17:36:24.130Z,110.25
2022-11-15T17:38:59.083Z,117.10
2022-11-15T17:41:26.850Z,106.00
2022-11-15T17:43:53.609Z,122.15
2022-11-15T17:46:21.352Z,125.22
2022-11-15T17:48:49.176Z,123.40
2022-11-15T17:51:18.694Z,115.30
2022-11-15T17:53:47.432Z,104.53
2022-11-15T17:56:17.246Z,118.05
2022-11-15T17:58:53.189Z,111.38
2022-11-15T18:01:34.348Z,123.35
2022-11-15T18:04:03.079Z,106.88
2022-11-15T18:06:32.108Z,103.68
2022-11-15T18:08:59.362Z,96.20
2022-11-15T18:11:28.122Z,96.28
2022-11-15T18:13:57.566Z,96.00
2022-11-15T18:16:27.331Z,101.18
2022-11-15T18:18:55.304Z,97.22
2022-11-15T18:21:24.444Z,89.05
2022-11-15T18:23:56.833Z,79.25
2022-11-15T18:26:27.719Z,74.68
2022-11-15T18:28:57.438Z,72.90
2022-11-15T18:31:27.191Z,69.00
2022-11-15T18:33:54.797Z,74.03
2022-11-15T18:36:26.607Z,74.82
2022-11-15T18:39:04.539Z,85.85
2022-11-15T18:41:32.713Z,76.68
2022-11-15T18:44:02.147Z,93.55
2022-11-15T18:46:31.885Z,72.60
2022-11-15T18:49:00.588Z,92.82
2022-11-15T18:51:32.244Z,87.43
2022-11-15T18:54:01.854Z,89.32
2022-11-15T18:56:30.426Z,114.00
2022-11-15T18:58:59.160Z,88.57
2022-11-15T19:01:36.841Z,104.43
2022-11-15T19:04:17.424Z,110.03
2022-11-15T19:06:49.392Z,97.18
2022-11-15T19:11:47.360Z,90.78
2022-11-15T19:14:16.636Z,99.70
2022-11-15T19:16:45.513Z,91.32
2022-11-15T19:19:15.198Z,123.03
2022-11-15T19:21:42.535Z,107.72
2022-11-15T19:24:10.449Z,105.53
2022-11-15T19:26:37.852Z,92.00
2022-11-15T19:29:06.284Z,106.22
2022-11-15T19:31:33.723Z,99.57
2022-11-15T19:34:06.748Z,97.18
2022-11-15T19:36:44.170Z,98.13
2022-11-15T19:39:13.440Z,107.20
2022-11-15T19:41:44.228Z,106.90
2022-11-15T19:44:12.544Z,124.43
2022-11-15T19:46:39.694Z,108.90
2022-11-15T19:49:11.029Z,111.57
2022-11-15T19:51:38.904Z,111.50
2022-11-15T19:54:09.060Z,109.47
2022-11-15T19:56:36.811Z,121.65
2022-11-15T19:59:04.978Z,114.40
2022-11-15T20:01:36.094Z,115.70
2022-11-15T20:04:03.422Z,119.65
2022-11-15T20:06:36.691Z,113.10
2022-11-15T20:09:04.349Z,118.90
2022-11-15T20:11:31.086Z,99.85
2022-11-15T20:13:59.313Z,117.28
2022-11-15T20:16:26.233Z,102.03
2022-11-15T20:18:53.689Z,104.25
2022-11-15T20:21:21.777Z,103.35
2022-11-15T20:23:50.761Z,103.32
2022-11-15T20:26:21.035Z,100.97
2022-11-15T20:28:48.618Z,110.93
2022-11-15T20:31:16.242Z,100.35
2022-11-15T20:33:43.037Z,110.93
2022-11-15T20:36:12.671Z,99.18
2022-11-15T20:38:39.524Z,96.55
2022-11-15T20:41:06.331Z,102.45
2022-11-15T20:43:33.519Z,98.70
2022-11-15T20:46:00.274Z,97.88
2022-11-15T20:48:27.236Z,91.05
2022-11-15T20:51:05.079Z,98.43
2022-11-15T20:53:31.891Z,94.38
2022-11-15T20:56:07.719Z,97.47
2022-11-15T20:58:36.236Z,92.07
2022-11-15T21:01:05.370Z,98.57
2022-11-15T21:03:32.933Z,91.13
2022-11-15T21:05:59.861Z,91.82
2022-11-15T21:08:26.688Z,95.25
2022-11-15T21:11:12.848Z,97.38
2022-11-15T21:13:39.794Z,97.50
2022-11-15T21:16:06.939Z,85.35
2022-11-15T21:18:33.984Z,88.30
2022-11-15T21:21:07.381Z,82.63
2022-11-15T21:23:34.126Z,84.97
2022-11-15T21:26:00.838Z,82.20
2022-11-15T21:28:27.560Z,68.32
2022-11-15T21:30:57.311Z,68.90
2022-11-15T21:33:27.295Z,71.10
2022-11-15T21:35:55.758Z,74.15
2022-11-15T21:38:23.683Z,66.38
2022-11-15T21:40:51.566Z,70.78
2022-11-15T21:43:19.062Z,68.35
2022-11-15T21:46:00.409Z,55.47
2022-11-15T21:48:28.298Z,53.92
2022-11-15T21:50:57.140Z,58.78
2022-11-15T21:53:25.143Z,55.38
2022-11-15T21:55:51.935Z,55.35
2022-11-15T21:58:19.863Z,53.38
2022-11-15T22:01:05.326Z,53.35
2022-11-15T22:03:32.244Z,53.10
2022-11-15T22:05:59.036Z,63.75
2022-11-15T22:08:26.578Z,56.72
2022-11-15T22:10:54.016Z,54.05
2022-11-15T22:13:21.041Z,52.88
2022-11-15T22:15:48.103Z,50.80
2022-11-15T22:18:15.123Z,49.65
2022-11-15T22:20:44.959Z,50.03
2022-11-15T22:23:12.139Z,47.53
2022-11-15T22:25:38.908Z,51.90
2022-11-15T22:28:06.000Z,49.63
2022-11-15T22:30:32.803Z,53.17
2022-11-15T22:32:59.521Z,47.70
2022-11-15T22:35:26.183Z,47.78
2022-11-15T22:37:53.018Z,43.20
2022-11-15T22:40:19.775Z,49.10
2022-11-15T22:42:46.509Z,45.10
2022-11-15T22:45:13.214Z,45.20
2022-11-15T22:47:39.979Z,45.90
2022-11-15T22:50:07.249Z,42.05
2022-11-15T22:52:34.156Z,42.83
2022-11-15T22:55:00.908Z,41.42
2022-11-15T22:57:27.778Z,41.47
2022-11-15T22:59:54.641Z,45.80
2022-11-15T23:02:21.544Z,41.83
2022-11-15T23:04:48.271Z,40.55
2022-11-15T23:07:15.482Z,33.90
2022-11-15T23:09:44.389Z,34.92
2022-11-15T23:12:33.310Z,35.85
2022-11-15T23:14:59.999Z,35.70
2022-11-15T23:17:26.687Z,30.85
2022-11-15T23:19:53.381Z,34.45
2022-11-15T23:22:38.699Z,35.20
2022-11-15T23:25:05.685Z,32.60
2022-11-15T23:27:32.645Z,33.50
2022-11-15T23:30:18.086Z,34.63
2022-11-15T23:33:04.439Z,30.23
2022-11-15T23:35:31.385Z,31.30
2022-11-15T23:37:58.251Z,32.83
2022-11-15T23:40:25.261Z,30.13
2022-11-15T23:42:52.009Z,35.28
2022-11-15T23:45:18.724Z,30.70
2022-11-15T23:47:45.469Z,30.50
2022-11-15T23:50:12.227Z,32.15
2022-11-15T23:52:39.016Z,31.98
2022-11-15T23:55:06.295Z,31.15
2022-11-15T23:57:32.998Z,33.53
